Time;durP1;ratioP1;P1;durP2;ratioP2;P2;SDS_P1;SDS_P2;PMS_P1;PMS_P2;Temp;Humidity;BMP_temperature;BMP_pressure;BME280_temperature;BME280_humidity;BME280_pressure;Samples;Min_cycle;Max_cycle;Signal;HPM_P1;HPM_P2
2023/04/11 00:00:12;;;;;;;16.23;8.43;;;;;;;10.77;66.08;96029.06;5087842;28;20038;-63
2023/04/11 00:02:40;;;;;;;21.17;8.90;;;;;;;10.74;66.35;96033.63;5079371;28;20030;-63
2023/04/11 00:05:07;;;;;;;21.90;9.48;;;;;;;10.72;67.43;96032.94;5076857;28;20032;-64
2023/04/11 00:07:32;;;;;;;20.15;9.70;;;;;;;10.70;66.77;96037.50;5081839;28;20059;-63
2023/04/11 00:09:58;;;;;;;18.60;9.52;;;;;;;10.68;67.04;96028.06;5075589;28;20117;-63
2023/04/11 00:12:23;;;;;;;17.75;9.27;;;;;;;10.65;68.20;96028.31;5082119;28;20024;-55
2023/04/11 00:14:48;;;;;;;19.48;9.75;;;;;;;10.58;69.28;96025.38;5078126;28;20020;-57
2023/04/11 00:17:16;;;;;;;11.85;7.03;;;;;;;10.56;68.64;96035.22;5080543;28;20554;-57
2023/04/11 00:19:44;;;;;;;15.85;7.28;;;;;;;10.54;69.42;96027.47;5077750;28;20032;-57
2023/04/11 00:22:15;;;;;;;6.93;4.57;;;;;;;10.53;69.11;96019.69;5077793;28;20027;-52
2023/04/11 00:24:40;;;;;;;6.60;3.50;;;;;;;10.55;69.25;96026.50;5075994;28;20020;-56
2023/04/11 00:27:06;;;;;;;5.10;3.10;;;;;;;10.57;69.88;96031.63;5086580;28;20028;-57
2023/04/11 00:29:33;;;;;;;3.47;2.70;;;;;;;10.74;69.64;96038.06;5077795;28;20031;-63
2023/04/11 00:31:59;;;;;;;3.08;2.60;;;;;;;10.54;69.90;96032.75;5087917;28;20157;-63
2023/04/11 00:34:25;;;;;;;3.20;2.72;;;;;;;10.44;70.44;96019.53;5081830;28;20088;-63
2023/04/11 00:36:51;;;;;;;4.95;2.72;;;;;;;10.34;71.78;96020.44;5083589;28;20056;-57
2023/04/11 00:39:17;;;;;;;2.88;2.50;;;;;;;10.32;72.11;96029.31;5087903;28;20083;-53
2023/04/11 00:41:43;;;;;;;3.30;2.97;;;;;;;10.28;72.04;96021.78;5089344;28;20158;-63
2023/04/11 00:44:09;;;;;;;6.15;3.17;;;;;;;10.25;72.18;96016.81;5087286;28;20040;-64
2023/04/11 00:46:34;;;;;;;7.78;3.00;;;;;;;10.26;72.10;96018.47;5083912;28;20020;-63
2023/04/11 00:49:00;;;;;;;3.53;2.95;;;;;;;10.26;71.76;96010.56;5077120;28;20031;-63
2023/04/11 00:51:26;;;;;;;3.03;2.72;;;;;;;10.28;71.06;96019.16;5077292;28;20109;-57
2023/04/11 00:53:52;;;;;;;3.33;3.03;;;;;;;10.29;71.06;96029.56;5078410;28;20031;-57
2023/04/11 00:56:17;;;;;;;3.63;3.33;;;;;;;10.34;70.74;96028.34;5077397;28;20099;-54
2023/04/11 00:58:43;;;;;;;5.75;3.47;;;;;;;10.32;70.79;96023.19;5082819;28;20195;-53
2023/04/11 01:01:08;;;;;;;5.45;3.35;;;;;;;10.29;70.68;96019.03;5089484;28;20090;-55
2023/04/11 01:03:38;;;;;;;5.80;3.35;;;;;;;10.27;70.90;96013.06;5075345;28;20016;-63
2023/04/11 01:06:09;;;;;;;6.65;3.88;;;;;;;10.18;72.70;96012.06;5080750;28;20056;-63
2023/04/11 01:08:36;;;;;;;9.43;6.70;;;;;;;10.13;73.10;96014.25;5086394;28;20016;-54
2023/04/11 01:11:02;;;;;;;9.23;7.05;;;;;;;10.15;72.34;96012.31;5088647;28;20165;-52
2023/04/11 01:13:29;;;;;;;7.40;4.43;;;;;;;10.15;72.13;96007.06;5078060;28;20033;-55
2023/04/11 01:15:55;;;;;;;6.47;3.63;;;;;;;10.17;71.79;95999.88;5084199;28;20025;-53
2023/04/11 01:18:20;;;;;;;4.55;4.15;;;;;;;10.19;72.19;95989.22;5085786;28;20028;-55
2023/04/11 01:20:46;;;;;;;6.72;4.82;;;;;;;10.15;73.34;95979.91;5083463;28;20280;-57
2023/04/11 01:23:13;;;;;;;6.00;4.57;;;;;;;10.12;74.49;95975.75;5086097;28;20027;-54
2023/04/11 01:25:39;;;;;;;6.43;4.50;;;;;;;10.11;74.83;95974.09;5085637;28;20374;-52
2023/04/11 01:28:07;;;;;;;10.25;5.60;;;;;;;10.08;74.20;95976.16;5084818;28;20044;-56
2023/04/11 01:30:33;;;;;;;6.18;5.10;;;;;;;10.04;73.22;95978.22;5082597;28;20029;-63
2023/04/11 01:32:58;;;;;;;5.30;4.07;;;;;;;10.06;72.90;95978.06;5087496;28;20028;-63
2023/04/11 01:35:24;;;;;;;7.43;4.35;;;;;;;10.07;73.73;95985.03;5077223;28;20032;-63
2023/04/11 01:37:49;;;;;;;8.40;5.25;;;;;;;10.06;74.43;95978.06;5078304;28;20082;-63
2023/04/11 01:40:17;;;;;;;7.75;4.70;;;;;;;10.07;74.79;95980.56;5079320;28;20035;-64
2023/04/11 01:42:44;;;;;;;6.15;5.18;;;;;;;10.07;74.09;95980.56;5088127;28;20107;-63
2023/04/11 01:45:11;;;;;;;7.63;5.47;;;;;;;10.07;74.10;95987.66;5087322;28;20048;-63
2023/04/11 01:47:37;;;;;;;8.35;4.80;;;;;;;10.08;73.62;95976.16;5080164;28;20454;-63
2023/04/11 01:50:03;;;;;;;5.70;5.10;;;;;;;10.38;71.50;95975.28;5091241;28;20050;-64
2023/04/11 01:52:29;;;;;;;5.57;3.95;;;;;;;10.34;71.82;95978.34;5083712;28;20107;-64
2023/04/11 01:54:54;;;;;;;5.97;4.38;;;;;;;10.16;73.08;95971.88;5082878;28;20031;-63
2023/04/11 01:57:20;;;;;;;6.35;5.15;;;;;;;10.06;73.63;95972.81;5077584;28;20036;-63
2023/04/11 01:59:45;;;;;;;5.72;5.15;;;;;;;10.12;73.49;95977.56;5082299;28;20020;-63
2023/04/11 02:02:10;;;;;;;6.10;4.53;;;;;;;10.15;72.57;95986.00;5079942;28;20032;-63
2023/04/11 02:04:36;;;;;;;5.70;4.20;;;;;;;10.17;72.09;95978.84;5078062;28;20040;-63
2023/04/11 02:07:01;;;;;;;5.57;3.05;;;;;;;10.15;71.07;95972.03;5079260;28;20036;-63
2023/04/11 02:09:27;;;;;;;4.03;3.63;;;;;;;10.12;71.32;95974.94;5080477;28;20020;-63
2023/04/11 02:11:52;;;;;;;5.30;4.80;;;;;;;10.05;72.35;95964.09;5089323;28;20051;-63
2023/04/11 02:14:19;;;;;;;11.82;7.75;;;;;;;10.04;73.07;95965.88;5082456;28;20102;-64
2023/04/11 02:16:55;;;;;;;4.55;4.05;;;;;;;10.04;73.19;95968.50;5082726;28;20035;-63
2023/04/11 02:19:22;;;;;;;5.25;3.78;;;;;;;9.99;74.07;95965.44;5086432;28;20439;-63
2023/04/11 02:21:48;;;;;;;3.70;3.40;;;;;;;10.02;73.44;95964.38;5088169;28;20066;-54
2023/04/11 02:24:14;;;;;;;6.28;3.28;;;;;;;10.04;72.61;95971.13;5081995;28;20027;-56
2023/04/11 02:26:42;;;;;;;3.72;3.42;;;;;;;10.07;71.94;95971.88;5084744;28;20034;-57
2023/04/11 02:29:08;;;;;;;3.80;3.40;;;;;;;10.08;73.99;95979.59;5081766;28;20039;-54
2023/04/11 02:31:33;;;;;;;5.05;3.38;;;;;;;10.11;72.53;95978.53;5080642;28;20381;-57
2023/04/11 02:33:59;;;;;;;2.85;2.60;;;;;;;10.13;71.76;95979.22;5079850;28;20042;-55
2023/04/11 02:36:27;;;;;;;7.95;3.58;;;;;;;10.16;71.42;95986.84;5077945;28;20050;-53
2023/04/11 02:38:52;;;;;;;3.25;3.00;;;;;;;10.21;70.69;95979.38;5077572;28;20063;-57
2023/04/11 02:41:18;;;;;;;3.03;2.80;;;;;;;10.22;70.81;95986.31;5082870;28;20040;-57
2023/04/11 02:43:44;;;;;;;6.28;3.30;;;;;;;10.21;72.31;95989.91;5079363;28;20119;-56
2023/04/11 02:46:09;;;;;;;4.15;3.45;;;;;;;10.18;72.50;95995.44;5085286;28;20044;-57
2023/04/11 02:48:34;;;;;;;4.70;3.20;;;;;;;10.16;73.19;96000.00;5082801;28;20163;-56
2023/04/11 02:51:00;;;;;;;3.58;3.25;;;;;;;10.14;73.27;95994.03;5084555;28;20020;-56
2023/04/11 02:53:25;;;;;;;4.25;3.47;;;;;;;10.12;73.01;95994.16;5084582;28;20043;-57
2023/04/11 02:55:51;;;;;;;4.28;3.85;;;;;;;10.12;73.79;95994.16;5084442;28;20107;-56
2023/04/11 02:58:16;;;;;;;5.97;3.60;;;;;;;10.10;73.78;95996.09;5081028;28;20043;-54
2023/04/11 03:00:45;;;;;;;5.57;3.45;;;;;;;10.11;73.98;95996.94;5085432;28;20032;-55
2023/04/11 03:03:10;;;;;;;4.97;3.10;;;;;;;10.12;72.78;95988.09;5078659;28;20088;-63
2023/04/11 03:05:36;;;;;;;3.42;3.00;;;;;;;10.11;73.43;95983.78;5077383;28;20435;-65
2023/04/11 03:08:07;;;;;;;3.55;2.80;;;;;;;10.12;73.06;95996.78;5083026;28;20362;-56
2023/04/11 03:10:33;;;;;;;3.75;2.75;;;;;;;10.06;73.10;95984.19;5076078;28;20115;-54
2023/04/11 03:12:59;;;;;;;3.65;2.90;;;;;;;10.07;72.84;95979.75;5079787;28;20071;-54
2023/04/11 03:15:24;;;;;;;7.65;3.10;;;;;;;10.07;73.27;95977.94;5087700;28;20374;-65
2023/04/11 03:17:49;;;;;;;5.72;3.13;;;;;;;10.08;74.69;95978.78;5086725;28;20039;-63
2023/04/11 03:20:18;;;;;;;5.47;3.00;;;;;;;10.00;75.41;95966.28;5081272;28;20024;-63
2023/04/11 03:22:44;;;;;;;4.65;3.10;;;;;;;9.94;76.08;95972.06;5083328;28;20028;-63
2023/04/11 03:25:10;;;;;;;4.57;3.00;;;;;;;9.89;76.73;95961.94;5077592;28;20035;-64
2023/04/11 03:27:35;;;;;;;5.80;3.15;;;;;;;9.87;76.45;95961.25;5076515;28;20028;-63
2023/04/11 03:30:01;;;;;;;2.97;2.78;;;;;;;9.88;75.44;95947.13;5079014;28;20511;-63
2023/04/11 03:32:26;;;;;;;6.75;3.00;;;;;;;9.86;75.47;95954.34;5075399;28;20028;-63
2023/04/11 03:34:52;;;;;;;3.15;2.72;;;;;;;9.86;75.20;95949.06;5083455;28;20287;-63
2023/04/11 03:37:17;;;;;;;3.90;2.95;;;;;;;9.91;74.06;95946.88;5084871;28;20032;-64
2023/04/11 03:39:42;;;;;;;4.13;3.00;;;;;;;9.92;75.93;95940.66;5081392;28;20469;-64
2023/04/11 03:42:08;;;;;;;4.20;2.80;;;;;;;9.87;76.07;95948.09;5088965;28;20521;-63
2023/04/11 03:44:33;;;;;;;4.47;2.90;;;;;;;9.88;76.72;95944.50;5087889;28;20449;-63
2023/04/11 03:46:59;;;;;;;5.35;2.72;;;;;;;9.90;76.19;95945.22;5080793;28;20055;-63
2023/04/11 03:49:24;;;;;;;4.78;3.05;;;;;;;9.99;75.01;95954.09;5083402;28;20051;-63
2023/04/11 03:51:50;;;;;;;5.75;2.83;;;;;;;10.00;75.00;95956.59;5081327;28;20100;-64
2023/04/11 03:54:16;;;;;;;3.80;3.13;;;;;;;9.94;75.89;95957.13;5089533;28;20036;-63
2023/04/11 03:56:42;;;;;;;4.30;3.03;;;;;;;9.87;77.55;95950.72;5079252;28;20638;-63
2023/04/11 03:59:07;;;;;;;5.60;3.42;;;;;;;10.02;75.89;95948.59;5078083;28;20111;-63
2023/04/11 04:01:36;;;;;;;3.70;3.00;;;;;;;9.96;76.56;95955.19;5081525;28;20106;-63
2023/04/11 04:04:03;;;;;;;4.55;3.35;;;;;;;10.00;76.75;95953.97;5088938;28;20050;-63
2023/04/11 04:06:29;;;;;;;8.10;3.83;;;;;;;10.07;77.22;95962.16;5088935;28;20415;-63
2023/04/11 04:08:54;;;;;;;6.53;3.75;;;;;;;9.91;78.70;95969.69;5083227;28;20078;-63
2023/04/11 04:11:20;;;;;;;5.18;3.22;;;;;;;9.76;80.86;95975.31;5089196;28;20044;-63
2023/04/11 04:13:45;;;;;;;3.25;2.70;;;;;;;10.06;79.78;95984.19;5090935;28;20023;-63
2023/04/11 04:16:11;;;;;;;4.15;3.30;;;;;;;10.22;79.72;95973.16;5090101;28;20028;-63
2023/04/11 04:18:36;;;;;;;3.70;3.35;;;;;;;10.66;79.00;95983.44;5083546;28;20020;-63
2023/04/11 04:21:02;;;;;;;3.97;3.67;;;;;;;10.37;81.57;95980.69;5085362;28;20040;-63
2023/04/11 04:23:28;;;;;;;4.15;3.85;;;;;;;10.64;79.46;95995.91;5088186;28;20043;-65
2023/04/11 04:25:56;;;;;;;5.00;3.90;;;;;;;10.29;82.26;95998.00;5082947;28;20020;-65
2023/04/11 04:28:24;;;;;;;3.92;3.63;;;;;;;10.26;81.37;96000.03;5083645;28;20035;-64
2023/04/11 04:30:52;;;;;;;4.18;3.78;;;;;;;10.30;81.06;96010.19;5086408;28;20042;-63
2023/04/11 04:33:21;;;;;;;4.32;3.92;;;;;;;10.23;83.78;96009.03;5082223;28;20040;-65
2023/04/11 04:35:47;;;;;;;4.35;3.92;;;;;;;10.18;84.02;96008.59;5082248;28;20028;-64
2023/04/11 04:38:16;;;;;;;5.32;3.67;;;;;;;10.17;83.29;96007.78;5094349;28;20048;-65
2023/04/11 04:40:42;;;;;;;4.45;3.60;;;;;;;10.24;82.94;95992.28;5095394;28;20355;-64
2023/04/11 04:43:10;;;;;;;3.90;3.60;;;;;;;10.12;84.53;95991.53;5083724;28;20107;-64
2023/04/11 04:45:35;;;;;;;4.07;3.67;;;;;;;9.91;87.16;95988.94;5095030;28;20031;-64
2023/04/11 04:48:01;;;;;;;5.85;4.72;;;;;;;9.77;90.52;95984.88;5089189;28;20066;-64
2023/04/11 04:50:26;;;;;;;7.93;4.18;;;;;;;9.62;94.01;95989.63;5098122;28;20016;-63
2023/04/11 04:52:52;;;;;;;7.00;4.18;;;;;;;9.52;96.01;95986.94;5095522;28;20107;-63
2023/04/11 04:55:17;;;;;;;8.68;4.13;;;;;;;9.48;98.58;95992.56;5081963;28;20024;-63
2023/04/11 04:57:42;;;;;;;5.13;4.18;;;;;;;9.44;98.70;96005.13;5095988;28;21912;-63
2023/04/11 05:00:10;;;;;;;4.72;4.20;;;;;;;9.46;98.35;96006.66;5091825;28;20412;-63
2023/04/11 05:02:36;;;;;;;4.75;4.35;;;;;;;9.50;99.22;96003.78;5095504;28;20476;-63
2023/04/11 05:05:03;;;;;;;4.50;4.10;;;;;;;9.50;100.00;96011.66;5093805;28;20055;-63
2023/04/11 05:07:29;;;;;;;5.22;4.50;;;;;;;9.49;100.00;96015.25;5084999;28;20086;-63
2023/04/11 05:09:54;;;;;;;5.15;4.68;;;;;;;9.45;100.00;96020.78;5092035;28;20812;-63
2023/04/11 05:12:25;;;;;;;5.00;4.50;;;;;;;9.39;100.00;96021.25;5080291;28;20028;-63
2023/04/11 05:14:51;;;;;;;4.25;3.85;;;;;;;9.62;100.00;96025.56;5090527;28;20028;-63
2023/04/11 05:17:17;;;;;;;6.82;4.70;;;;;;;9.72;100.00;96027.31;5083170;28;20043;-63
2023/04/11 05:19:43;;;;;;;5.70;4.70;;;;;;;9.73;100.00;96031.59;5083102;28;20466;-64
2023/04/11 05:22:08;;;;;;;4.80;4.40;;;;;;;9.88;100.00;96028.66;5095653;28;20061;-64
2023/04/11 05:24:34;;;;;;;4.63;4.10;;;;;;;9.62;100.00;96036.09;5094112;28;20024;-64
2023/04/11 05:26:59;;;;;;;5.68;4.47;;;;;;;9.64;100.00;96040.28;5092549;28;20024;-64
2023/04/11 05:29:25;;;;;;;5.32;4.45;;;;;;;9.53;100.00;96043.78;5086086;28;20327;-64
2023/04/11 05:31:50;;;;;;;6.68;4.90;;;;;;;9.33;100.00;96048.03;5088766;28;20035;-64
2023/04/11 05:34:15;;;;;;;6.82;4.72;;;;;;;9.42;100.00;96042.06;5081290;28;20378;-63
2023/04/11 05:36:41;;;;;;;7.40;5.00;;;;;;;9.13;100.00;96032.09;5092933;28;20035;-64
2023/04/11 05:39:06;;;;;;;5.28;4.78;;;;;;;9.03;100.00;96032.00;5095836;28;20059;-64
2023/04/11 05:41:32;;;;;;;7.07;5.07;;;;;;;9.00;100.00;96048.03;5084247;28;20107;-64
2023/04/11 05:43:57;;;;;;;7.03;6.32;;;;;;;8.96;100.00;96046.59;5089345;28;20387;-64
2023/04/11 05:46:23;;;;;;;8.52;5.95;;;;;;;8.95;100.00;96041.47;5083417;28;20035;-64
2023/04/11 05:48:48;;;;;;;9.15;5.45;;;;;;;8.95;100.00;96049.34;5089732;28;20053;-64
2023/04/11 05:51:13;;;;;;;9.80;5.57;;;;;;;9.01;100.00;96044.44;5088144;28;20028;-64
2023/04/11 05:53:39;;;;;;;5.78;5.28;;;;;;;9.08;100.00;96042.16;5082843;28;20027;-65
2023/04/11 05:56:05;;;;;;;6.28;5.68;;;;;;;9.13;100.00;96031.28;5088425;28;20035;-66
2023/04/11 05:58:31;;;;;;;6.57;5.97;;;;;;;9.30;100.00;96032.53;5086642;28;20036;-65
2023/04/11 06:00:58;;;;;;;9.63;7.03;;;;;;;9.29;100.00;96026.47;5088583;28;20027;-65
2023/04/11 06:03:24;;;;;;;13.23;11.75;;;;;;;9.30;100.00;96027.28;5085803;28;20039;-65
2023/04/11 06:05:49;;;;;;;10.65;9.60;;;;;;;9.23;100.00;96028.75;5083565;28;20438;-65
2023/04/11 06:08:15;;;;;;;10.18;9.15;;;;;;;9.13;100.00;96028.66;5091798;28;20055;-64
2023/04/11 06:10:40;;;;;;;9.50;6.55;;;;;;;9.06;100.00;96015.19;5083221;28;20028;-65
2023/04/11 06:13:06;;;;;;;7.13;6.20;;;;;;;9.04;100.00;96011.84;5077467;28;20046;-65
2023/04/11 06:15:31;;;;;;;11.05;6.63;;;;;;;9.03;100.00;96000.50;5081914;28;20528;-65
2023/04/11 06:17:57;;;;;;;11.73;7.60;;;;;;;9.08;100.00;95992.25;5084247;28;20029;-64
2023/04/11 06:20:23;;;;;;;8.10;7.30;;;;;;;9.16;100.00;95989.00;5084790;28;20424;-65
2023/04/11 06:22:51;;;;;;;7.93;5.95;;;;;;;9.22;100.00;95983.25;5086946;28;20527;-65
2023/04/11 06:25:19;;;;;;;6.78;5.90;;;;;;;9.25;100.00;95976.91;5081634;28;20462;-65
2023/04/11 06:27:45;;;;;;;5.78;5.25;;;;;;;9.21;100.00;95975.50;5080497;28;20499;-65
2023/04/11 06:30:10;;;;;;;6.93;5.20;;;;;;;9.27;100.00;95974.97;5080271;28;20016;-65
2023/04/11 06:32:36;;;;;;;6.78;5.18;;;;;;;9.47;100.00;95981.19;5081341;28;20895;-66
2023/04/11 06:35:01;;;;;;;14.05;10.88;;;;;;;9.66;100.00;95998.06;5092448;28;20028;-65
2023/04/11 06:37:27;;;;;;;12.30;8.85;;;;;;;9.46;100.00;96011.06;5085995;28;20764;-63
2023/04/11 06:39:52;;;;;;;7.30;6.60;;;;;;;9.71;100.00;96020.38;5093255;28;20485;-65
2023/04/11 06:42:17;;;;;;;7.90;6.38;;;;;;;9.45;100.00;96035.69;5083423;28;20042;-66
2023/04/11 06:44:47;;;;;;;27.33;17.60;;;;;;;9.39;100.00;96051.97;5088345;28;20024;-66
2023/04/11 06:47:12;;;;;;;10.57;9.27;;;;;;;9.70;100.00;96055.53;5079993;28;20046;-65
2023/04/11 06:49:38;;;;;;;10.07;6.38;;;;;;;9.81;100.00;96069.56;5081739;28;20554;-65
2023/04/11 06:52:03;;;;;;;7.53;6.00;;;;;;;9.66;100.00;96062.00;5079541;28;20032;-65
2023/04/11 06:54:29;;;;;;;15.10;13.48;;;;;;;9.56;100.00;96055.81;5080371;28;20024;-65
2023/04/11 06:56:56;;;;;;;13.35;12.07;;;;;;;9.42;100.00;96063.06;5083190;28;20055;-65
2023/04/11 06:59:21;;;;;;;10.00;6.65;;;;;;;9.34;100.00;96065.47;5087801;28;20027;-65
2023/04/11 07:01:48;;;;;;;7.78;5.85;;;;;;;9.44;100.00;96065.56;5091637;28;20032;-71
2023/04/11 07:04:14;;;;;;;6.15;5.65;;;;;;;9.34;100.00;96065.47;5092933;28;20461;-66
2023/04/11 07:06:39;;;;;;;9.13;5.60;;;;;;;9.38;100.00;96055.56;5095696;28;20058;-66
2023/04/11 07:09:05;;;;;;;7.45;6.35;;;;;;;9.29;100.00;96052.72;5083314;28;20058;-65
2023/04/11 07:11:32;;;;;;;10.68;9.55;;;;;;;9.27;100.00;96048.56;5091751;28;20518;-65
2023/04/11 07:14:01;;;;;;;29.00;25.48;;;;;;;9.31;100.00;96065.72;5094626;28;20032;-65
2023/04/11 07:16:27;;;;;;;19.75;17.52;;;;;;;9.22;100.00;96053.34;5094835;28;20027;-65
2023/04/11 07:18:53;;;;;;;10.20;7.78;;;;;;;9.20;100.00;96048.22;5094141;28;20088;-64
2023/04/11 07:21:18;;;;;;;15.65;14.10;;;;;;;9.21;100.00;96049.06;5085765;28;20071;-65
2023/04/11 07:23:44;;;;;;;19.55;17.50;;;;;;;9.22;100.00;96046.28;5093321;28;20521;-65
2023/04/11 07:26:10;;;;;;;18.60;16.52;;;;;;;9.31;100.00;96053.44;5085406;28;20080;-65
2023/04/11 07:28:40;;;;;;;9.35;8.55;;;;;;;9.37;100.00;96070.47;5091444;28;20020;-65
2023/04/11 07:31:12;;;;;;;8.10;6.88;;;;;;;9.42;100.00;96068.34;5091055;28;20405;-65
2023/04/11 07:33:41;;;;;;;8.82;6.45;;;;;;;9.38;100.00;96072.13;5093620;28;20027;-65
2023/04/11 07:36:07;;;;;;;8.52;7.03;;;;;;;9.39;100.00;96070.38;5095341;28;20028;-65
2023/04/11 07:38:33;;;;;;;6.05;5.63;;;;;;;9.36;100.00;96076.69;5094550;28;20071;-65
2023/04/11 07:41:01;;;;;;;6.15;5.55;;;;;;;9.30;100.00;96083.31;5086708;28;20031;-65
2023/04/11 07:43:27;;;;;;;7.47;6.78;;;;;;;9.29;100.00;96089.53;5094223;28;20142;-65
2023/04/11 07:45:54;;;;;;;8.00;6.25;;;;;;;9.23;100.00;96099.69;5095176;28;20023;-65
2023/04/11 07:48:24;;;;;;;6.53;5.95;;;;;;;9.20;100.00;96097.31;5082745;28;20056;-64
2023/04/11 07:50:51;;;;;;;6.57;5.97;;;;;;;9.17;100.00;96099.22;5085735;28;20341;-65
2023/04/11 07:53:16;;;;;;;8.43;7.63;;;;;;;9.12;100.00;96104.00;5089263;28;20028;-65
2023/04/11 07:55:42;;;;;;;11.93;7.97;;;;;;;9.15;100.00;96095.03;5085333;28;20040;-65
2023/04/11 07:58:08;;;;;;;7.95;7.07;;;;;;;9.22;100.00;96088.31;5095144;28;20098;-65
2023/04/11 08:00:33;;;;;;;10.10;7.70;;;;;;;9.24;100.00;96093.47;5085860;28;20035;-65
2023/04/11 08:03:03;;;;;;;11.23;9.82;;;;;;;9.24;100.00;96096.09;5094919;28;20067;-66
2023/04/11 08:05:33;;;;;;;8.93;8.02;;;;;;;9.26;100.00;96102.06;5093644;28;20058;-66
2023/04/11 08:07:58;;;;;;;7.50;6.50;;;;;;;9.28;100.00;96102.75;5095051;28;20020;-66
2023/04/11 08:10:24;;;;;;;5.95;5.35;;;;;;;9.26;100.00;96107.31;5081695;28;20617;-66
2023/04/11 08:12:50;;;;;;;7.10;5.60;;;;;;;9.25;100.00;96097.75;5080264;28;20048;-66
2023/04/11 08:15:16;;;;;;;5.70;5.15;;;;;;;9.27;100.00;96101.09;5080076;28;20028;-66
2023/04/11 08:17:42;;;;;;;6.60;5.70;;;;;;;9.28;100.00;96101.00;5089979;28;20048;-66
2023/04/11 08:20:09;;;;;;;6.43;5.82;;;;;;;9.30;100.00;96106.09;5090570;28;20031;-66
2023/04/11 08:22:35;;;;;;;6.68;6.13;;;;;;;9.25;100.00;96103.84;5094516;28;20032;-66
2023/04/11 08:25:01;;;;;;;6.53;5.70;;;;;;;9.22;100.00;96098.00;5093107;28;20032;-66
2023/04/11 08:27:26;;;;;;;6.25;5.72;;;;;;;9.27;100.00;96106.34;5092216;28;20028;-66
2023/04/11 08:29:52;;;;;;;6.97;6.30;;;;;;;9.24;100.00;96112.69;5091901;28;20080;-65
2023/04/11 08:32:17;;;;;;;7.65;6.47;;;;;;;9.37;100.00;96111.69;5091945;28;20024;-65
2023/04/11 08:34:43;;;;;;;8.52;6.53;;;;;;;9.51;100.00;96105.31;5094673;28;20035;-65
2023/04/11 08:37:08;;;;;;;8.63;7.63;;;;;;;9.62;100.00;96114.97;5090222;28;20027;-66
2023/04/11 08:39:34;;;;;;;7.70;6.90;;;;;;;9.54;100.00;96128.72;5085066;28;20119;-67
2023/04/11 08:41:59;;;;;;;9.93;7.97;;;;;;;9.43;100.00;96133.06;5088976;28;20453;-66
2023/04/11 08:44:25;;;;;;;8.43;6.75;;;;;;;9.33;100.00;96126.88;5092976;28;20517;-65
2023/04/11 08:46:50;;;;;;;7.00;6.30;;;;;;;9.46;100.00;96131.97;5094080;28;20031;-66
2023/04/11 08:49:16;;;;;;;8.77;5.88;;;;;;;9.41;100.00;96129.72;5086250;28;20362;-65
2023/04/11 08:51:42;;;;;;;5.68;5.18;;;;;;;9.33;100.00;96126.88;5098399;28;20027;-66
2023/04/11 08:54:08;;;;;;;5.45;5.03;;;;;;;9.57;100.00;96116.19;5094205;28;20024;-65
2023/04/11 08:56:34;;;;;;;5.35;4.32;;;;;;;9.54;100.00;96118.22;5091932;28;20027;-65
2023/04/11 08:59:01;;;;;;;3.65;3.40;;;;;;;9.63;100.00;96112.22;5083660;28;20370;-65
2023/04/11 09:01:31;;;;;;;2.97;2.75;;;;;;;9.67;100.00;96113.63;5095028;28;20055;-65
2023/04/11 09:04:01;;;;;;;2.63;2.53;;;;;;;9.61;100.00;96098.34;5093292;28;20039;-65
2023/04/11 09:06:31;;;;;;;2.30;2.20;;;;;;;9.68;100.00;96107.41;5092564;28;20028;-65
2023/04/11 09:08:58;;;;;;;2.70;2.50;;;;;;;9.74;100.00;96117.41;5087219;28;20453;-65
2023/04/11 09:11:24;;;;;;;2.60;2.40;;;;;;;9.70;100.00;96113.38;5080597;28;20541;-65
2023/04/11 09:14:10;;;;;;;2.95;2.75;;;;;;;9.67;100.00;96128.56;5084214;28;20039;-65
2023/04/11 09:16:36;;;;;;;2.67;2.47;;;;;;;9.71;100.00;96122.94;5084440;28;20040;-65
2023/04/11 09:19:02;;;;;;;2.72;2.53;;;;;;;9.69;100.00;96124.84;5091228;28;20036;-65
2023/04/11 09:21:28;;;;;;;3.15;3.00;;;;;;;9.77;100.00;96126.00;5085850;28;20064;-65
2023/04/11 09:24:14;;;;;;;2.95;2.65;;;;;;;9.66;100.00;96119.00;5088148;28;20032;-66
2023/04/11 09:26:40;;;;;;;3.05;2.60;;;;;;;9.82;100.00;96116.78;5088149;28;20027;-65
2023/04/11 09:29:05;;;;;;;2.85;2.50;;;;;;;9.77;100.00;96118.97;5082515;28;20024;-65
2023/04/11 09:31:42;;;;;;;3.38;3.10;;;;;;;9.77;100.00;96102.34;5093976;28;20024;-64
2023/04/11 09:34:10;;;;;;;4.40;2.90;;;;;;;9.82;100.00;96094.91;5080066;28;20037;-65
2023/04/11 09:36:35;;;;;;;2.60;2.40;;;;;;;9.81;100.00;96098.50;5097148;28;20035;-65
2023/04/11 09:39:17;;;;;;;2.97;2.78;;;;;;;9.85;100.00;96108.63;5094946;28;20052;-65
2023/04/11 09:41:43;;;;;;;3.53;2.53;;;;;;;9.88;100.00;96112.81;5090960;28;20048;-65
2023/04/11 09:44:09;;;;;;;4.35;3.67;;;;;;;9.89;100.00;96107.41;5092481;28;20401;-65
2023/04/11 09:46:34;;;;;;;3.30;2.50;;;;;;;9.85;100.00;96103.38;5088688;28;20048;-66
2023/04/11 09:49:00;;;;;;;2.20;2.10;;;;;;;9.87;100.00;96109.34;5089319;28;20020;-66
2023/04/11 09:51:26;;;;;;;3.17;2.28;;;;;;;9.92;100.00;96105.50;5096953;28;20261;-65
2023/04/11 09:53:51;;;;;;;2.55;2.20;;;;;;;9.84;100.00;96108.78;5088324;28;20126;-65
2023/04/11 09:56:17;;;;;;;3.22;2.40;;;;;;;9.81;100.00;96101.13;5097007;28;20035;-65
2023/04/11 09:58:42;;;;;;;2.25;2.15;;;;;;;9.87;100.00;96106.72;5094079;28;20040;-65
2023/04/11 10:01:09;;;;;;;2.67;2.42;;;;;;;9.89;100.00;96107.41;5095719;28;20038;-65
2023/04/11 10:03:35;;;;;;;2.70;2.22;;;;;;;9.90;100.00;96105.63;5093041;28;20032;-65
2023/04/11 10:06:21;;;;;;;2.60;2.40;;;;;;;9.99;100.00;96098.78;5095304;28;20119;-65
2023/04/11 10:08:49;;;;;;;2.92;2.45;;;;;;;10.07;100.00;96108.66;5087084;28;20458;-65
2023/04/11 10:11:19;;;;;;;3.67;2.50;;;;;;;10.15;100.00;96093.06;5094937;28;20102;-65
2023/04/11 10:13:45;;;;;;;6.10;3.25;;;;;;;10.18;100.00;96096.28;5080649;28;20049;-65
2023/04/11 10:16:16;;;;;;;5.45;3.40;;;;;;;10.20;100.00;96097.94;5085927;28;20096;-65
2023/04/11 10:18:50;;;;;;;4.68;2.88;;;;;;;10.29;100.00;96098.00;5092533;28;20031;-65
2023/04/11 10:21:35;;;;;;;3.60;2.42;;;;;;;10.31;100.00;96113.63;5087000;28;20503;-65
2023/04/11 10:24:14;;;;;;;2.92;2.35;;;;;;;10.35;100.00;96106.31;5087412;28;20485;-65
2023/04/11 10:26:54;;;;;;;3.30;2.50;;;;;;;10.34;100.00;96089.69;5078395;28;20102;-65
2023/04/11 10:29:32;;;;;;;3.80;2.42;;;;;;;10.38;100.00;96095.53;5085978;28;20453;-65
2023/04/11 10:32:11;;;;;;;3.08;2.20;;;;;;;10.49;100.00;96107.81;5078137;28;20029;-65
2023/04/11 10:34:38;;;;;;;2.92;2.55;;;;;;;10.52;100.00;96095.22;5088488;28;20266;-65
2023/04/11 10:37:09;;;;;;;3.83;2.65;;;;;;;10.56;100.00;96082.63;5090952;28;20035;-65
2023/04/11 10:39:49;;;;;;;5.65;4.72;;;;;;;10.60;100.00;96084.00;5083172;28;20055;-65
2023/04/11 10:42:35;;;;;;;4.95;4.45;;;;;;;10.73;100.00;96086.44;5085637;28;20031;-65
2023/04/11 10:45:26;;;;;;;4.40;3.38;;;;;;;10.65;100.00;96086.25;5090269;28;20038;-65
2023/04/11 10:48:01;;;;;;;3.30;3.10;;;;;;;10.52;100.00;96082.06;5090908;28;20035;-66
2023/04/11 10:50:26;;;;;;;4.33;3.90;;;;;;;10.48;100.00;96085.09;5085259;28;20024;-66
2023/04/11 10:52:51;;;;;;;3.75;3.45;;;;;;;10.53;100.00;96091.63;5091676;28;20028;-65
2023/04/11 10:55:18;;;;;;;5.90;3.70;;;;;;;10.60;100.00;96090.13;5084325;28;20181;-65
2023/04/11 10:58:08;;;;;;;5.97;3.83;;;;;;;10.72;100.00;96085.59;5095177;28;20509;-65
2023/04/11 11:00:46;;;;;;;6.53;5.60;;;;;;;10.88;100.00;96087.72;5089075;28;20118;-65
2023/04/11 11:03:20;;;;;;;9.13;7.90;;;;;;;11.06;100.00;96086.25;5091324;28;20482;-65
2023/04/11 11:05:55;;;;;;;7.32;6.13;;;;;;;11.27;100.00;96087.00;5078162;28;20362;-66
2023/04/11 11:08:29;;;;;;;4.80;4.35;;;;;;;11.30;100.00;96077.97;5086733;28;20036;-65
2023/04/11 11:11:02;;;;;;;3.60;3.28;;;;;;;11.08;99.65;96071.16;5089965;28;20062;-65
2023/04/11 11:13:59;;;;;;;3.97;3.67;;;;;;;11.31;100.00;96071.72;5090772;28;20020;-65
2023/04/11 11:16:25;;;;;;;3.50;3.17;;;;;;;11.59;100.00;96058.69;5084280;28;20032;-66
2023/04/11 11:18:53;;;;;;;4.70;3.30;;;;;;;11.72;98.47;96053.97;5095767;28;20470;-65
2023/04/11 11:21:23;;;;;;;4.03;3.17;;;;;;;12.00;97.94;96056.69;5089223;28;20484;-65
2023/04/11 11:23:54;;;;;;;4.50;3.58;;;;;;;12.13;96.27;96047.69;5080921;28;20081;-65
2023/04/11 11:26:20;;;;;;;5.95;3.72;;;;;;;12.03;96.45;96058.25;5092931;28;20067;-58
2023/04/11 11:28:47;;;;;;;3.65;2.50;;;;;;;12.16;95.91;96056.16;5086927;28;20024;-55
2023/04/11 11:31:12;;;;;;;3.42;2.30;;;;;;;12.21;94.60;96057.53;5087638;28;20035;-56